CMA CGM Volga — 5BJR2 — position and weather

sailwx.info

Track history (hours):
 
Tides and Currents Weather Stations Pressure Air Temp Water Temp Dewpoint Dewpoint Depression Visibility Wind Speed Wind Dir Waves Ship Positions

CMA CGM Volga

Last reported at 2016-Jul-26 21:16 UTC. Time now 2016-Jul-27 03:48 UTC.
Position N 50°54' W 001°28'.

Length 184 m; draft 8.6 m.

Type: Ship (hazmat cat A). MMSI: 212456000.

Date/timePositionNaut miles runAvg speedWind from/ knotsBaromVisibWave heightAir tempDewpointWater temp
2016-Jul-26 21:16N 50°54' W 001°28'3 4.4
2016-Jul-26 20:32N 50°53' W 001°23'7 7.2
2016-Jul-26 19:33N 50°47' W 001°18'1313.2
2016-Jul-26 18:33N 50°41' W 000°59'4 3.6
2016-Jul-26 17:31N 50°38' W 001°01'0 0.2
2016-Jul-26 16:31N 50°38' W 001°01'0 0.2
2016-Jul-26 15:25N 50°38' W 001°00'0 0.0
2016-Jul-26 14:31N 50°38' W 001°00'0 0.0
2016-Jul-26 13:31N 50°38' W 001°00'0 0.0
2016-Jul-26 12:31N 50°38' W 001°00'0 0.0
2016-Jul-26 11:31N 50°38' W 001°00'0 0.0
2016-Jul-26 10:31N 50°38' W 001°00'0 0.0
2016-Jul-26 09:31N 50°38' W 001°00'0 0.2
2016-Jul-26 08:31N 50°38' W 001°01'0 0.0
2016-Jul-26 07:31N 50°38' W 001°01'0 0.0
2016-Jul-26 06:31N 50°38' W 001°01'0 0.0
2016-Jul-26 05:31N 50°38' W 001°01'0 0.0
2016-Jul-26 04:31N 50°38' W 001°01'0 0.1
2016-Jul-26 03:31N 50°38' W 001°01'0 0.2
2016-Jul-26 02:28N 50°38' W 001°00'0 0.0
2016-Jul-26 01:31N 50°38' W 001°00'0 0.0
2016-Jul-26 00:25N 50°38' W 001°00'0 0.0
2016-Jul-25 23:31N 50°38' W 001°00'0 0.0
2016-Jul-25 22:31N 50°38' W 001°00'0 0.0
2016-Jul-25 21:31N 50°38' W 001°00'0 0.0
2016-Jul-25 20:31N 50°38' W 001°00'0 0.2
2016-Jul-25 19:31N 50°38' W 001°01'0 0.0
2016-Jul-25 18:31N 50°38' W 001°01'0 0.0
2016-Jul-25 17:25N 50°38' W 001°01'0 0.0
2016-Jul-25 16:28N 50°38' W 001°01'0 0.1
2016-Jul-25 15:31N 50°38' W 001°01'2 1.7
2016-Jul-25 14:33N 50°38' W 000°58'9 9.2
2016-Jul-25 13:33N 50°36' W 000°44'1111.0
2016-Jul-25 12:33N 50°34' W 000°27'1010.5
2016-Jul-25 11:33N 50°33' W 000°10'1111.1
2016-Jul-25 10:32N 50°33' E 000°07'4113.2
2016-Jul-25 07:25N 50°52' E 001°05'1213.1
2016-Jul-25 06:28N 51°00' E 001°21'1111.7
2016-Jul-25 05:33N 51°07' E 001°33'1010.1
2016-Jul-25 04:33N 51°14' E 001°45'1010.5
2016-Jul-25 03:33N 51°22' E 001°56'10 9.9
2016-Jul-25 02:33N 51°22' E 002°12'1111.1
2016-Jul-25 01:31N 51°23' E 002°30'1212.1
2016-Jul-25 00:33N 51°22' E 002°49'1615.0
2016-Jul-24 23:27N 51°25' E 003°15'1314.2
2016-Jul-24 22:33N 51°26' E 003°35'1111.2
2016-Jul-24 21:33N 51°21' E 003°51'1211.9
2016-Jul-24 20:32N 51°23' E 004°10'7 7.1
2016-Jul-24 19:33N 51°17' E 004°15'0 0.0
2016-Jul-24 18:23N 51°17' E 004°15'0 0.0
2016-Jul-24 17:32N 51°17' E 004°15'0 0.0
2016-Jul-24 16:32N 51°17' E 004°15'0 0.0
2016-Jul-24 14:29N 51°17' E 004°15'0 0.0
2016-Jul-24 13:26N 51°17' E 004°15'0 0.0
2016-Jul-24 12:32N 51°17' E 004°15'0 0.0
2016-Jul-24 11:26N 51°17' E 004°15'0 0.0
2016-Jul-24 10:32N 51°17' E 004°15'0 0.0
2016-Jul-24 09:32N 51°17' E 004°15'0 0.0
2016-Jul-24 08:20N 51°17' E 004°15'0 0.0
2016-Jul-24 07:32N 51°17' E 004°15'0 0.0
2016-Jul-24 06:29N 51°17' E 004°15'0 0.0
2016-Jul-24 04:32N 51°17' E 004°15'0 0.0
2016-Jul-24 03:17N 51°17' E 004°15'0 0.0
2016-Jul-24 02:17N 51°17' E 004°15'0 0.0
2016-Jul-24 01:29N 51°17' E 004°15'0 0.0
2016-Jul-24 00:26N 51°17' E 004°15'0 0.0
2016-Jul-23 23:26N 51°17' E 004°15'0 0.0
2016-Jul-23 22:32N 51°17' E 004°15'0 0.0
2016-Jul-23 21:30N 51°17' E 004°15'2 2.5
2016-Jul-23 20:33N 51°19' E 004°16'7 6.8
2016-Jul-23 19:33N 51°22' E 004°06'7 7.1
2016-Jul-23 18:33N 51°22' E 003°55'1111.2
2016-Jul-23 17:33N 51°26' E 003°38'10 9.5
2016-Jul-23 16:33N 51°24' E 003°23'1717.1
2016-Jul-23 15:33N 51°22' E 002°56'1010.0
2016-Jul-23 14:32N 51°24' E 002°40'1 0.6
2016-Jul-23 13:19N 51°25' E 002°40'0 0.1
2016-Jul-23 12:04N 51°25' E 002°40'0 0.0
2016-Jul-23 09:22N 51°25' E 002°40'0 0.1
2016-Jul-23 06:34N 51°25' E 002°40'0 0.1
2016-Jul-23 04:34N 51°25' E 002°40'0 0.0
2016-Jul-23 01:28N 51°25' E 002°40'0 0.1
2016-Jul-23 00:25N 51°25' E 002°40'0 0.0
2016-Jul-22 22:30N 51°25' E 002°40'8 8.1
2016-Jul-22 21:31N 51°21' E 002°28'1212.3
2016-Jul-22 20:33N 51°15' E 002°12'1312.7
2016-Jul-22 19:33N 51°09' E 001°55'1312.9
2016-Jul-22 18:33N 51°01' E 001°39'1513.5
2016-Jul-22 17:28N 50°48' E 001°27'1313.9
2016-Jul-22 16:33N 50°38' E 001°16'2913.9
2016-Jul-22 14:27N 50°24' E 000°35'1314.4
2016-Jul-22 13:33N 50°21' E 000°15'1514.8
2016-Jul-22 12:33N 50°20' W 000°08'1715.0
2016-Jul-22 11:26N 50°27' W 000°31'1416.0
2016-Jul-22 10:33N 50°36' W 000°48'1414.5
2016-Jul-22 09:33N 50°45' W 001°06'1212.4
2016-Jul-22 08:33N 50°52' W 001°22'3 0.6
2016-Jul-22 02:19N 50°54' W 001°27'0 0.0
2016-Jul-21 16:22N 50°54' W 001°27'0 0.0
2016-Jul-21 15:31N 50°54' W 001°27'5 5.7
2016-Jul-21 14:33N 50°51' W 001°20'10 9.8
2016-Jul-21 13:33N 50°45' W 001°07'8 7.5
2016-Jul-21 12:33N 50°39' W 001°02'1 0.8
2016-Jul-21 11:33N 50°38' W 001°03'0 0.0
2016-Jul-21 10:27N 50°38' W 001°03'0 0.0
2016-Jul-21 09:27N 50°38' W 001°03'0 0.0
2016-Jul-21 08:33N 50°38' W 001°03'0 0.0
2016-Jul-21 07:33N 50°38' W 001°03'0 0.0
2016-Jul-21 06:33N 50°38' W 001°03'0 0.1
2016-Jul-21 05:33N 50°38' W 001°03'0 0.2
2016-Jul-21 04:30N 50°38' W 001°04'0 0.0
2016-Jul-21 03:33N 50°38' W 001°04'0 0.0
2016-Jul-21 02:33N 50°38' W 001°04'0 0.0
2016-Jul-21 01:33N 50°38' W 001°04'0 0.0
2016-Jul-21 00:33N 50°38' W 001°04'0 0.2
2016-Jul-20 23:27N 50°38' W 001°03'0 0.1
2016-Jul-20 22:33N 50°38' W 001°03'0 0.0
2016-Jul-20 21:33N 50°38' W 001°03'0 0.0
2016-Jul-20 20:33N 50°38' W 001°03'0 0.0
2016-Jul-20 19:21N 50°38' W 001°03'0 0.0
2016-Jul-20 18:27N 50°38' W 001°03'0 0.0
2016-Jul-20 17:33N 50°38' W 001°03'0 0.1
2016-Jul-20 16:33N 50°38' W 001°03'0 0.2
2016-Jul-20 15:33N 50°38' W 001°03'0 0.0
2016-Jul-20 14:33N 50°38' W 001°03'0 0.0
2016-Jul-20 13:33N 50°38' W 001°03'0 0.0
2016-Jul-20 12:21N 50°38' W 001°03'0 0.3
2016-Jul-20 11:33N 50°38' W 001°03'1 0.6
2016-Jul-20 10:33N 50°39' W 001°02'10 9.8
2016-Jul-20 09:34N 50°36' W 000°48'10 9.9
2016-Jul-20 08:33N 50°34' W 000°32'1010.5
2016-Jul-20 07:33N 50°33' W 000°16'1211.8
2016-Jul-20 06:30N 50°33' E 000°03'1313.1
2016-Jul-20 05:30N 50°37' E 000°23'2813.9
2016-Jul-20 03:32N 50°50' E 001°01'1313.1
2016-Jul-20 02:32N 50°59' E 001°17'1211.8
2016-Jul-20 01:33N 51°06' E 001°31'1010.5
2016-Jul-20 00:33N 51°13' E 001°43'1111.0
2016-Jul-19 23:33N 51°22' E 001°54'1110.9
2016-Jul-19 22:33N 51°22' E 002°12'1313.0
2016-Jul-19 21:33N 51°23' E 002°33'1414.5
2016-Jul-19 20:33N 51°23' E 002°56'1916.3
2016-Jul-19 19:24N 51°25' E 003°26'1214.6
2016-Jul-19 18:33N 51°22' E 003°45'1211.9
2016-Jul-19 17:33N 51°22' E 004°04'9 8.5
2016-Jul-19 16:33N 51°18' E 004°16'0 0.0
2016-Jul-19 14:25N 51°18' E 004°16'0 0.0
2016-Jul-19 13:07N 51°18' E 004°16'0 0.0
2016-Jul-19 12:31N 51°18' E 004°16'0 0.0
2016-Jul-19 11:10N 51°18' E 004°16'0 0.0
2016-Jul-19 10:22N 51°18' E 004°16'0 0.0
2016-Jul-19 09:22N 51°18' E 004°16'0 0.0
2016-Jul-19 08:31N 51°18' E 004°16'0 0.0
2016-Jul-19 07:31N 51°18' E 004°16'0 0.0
2016-Jul-19 04:19N 51°18' E 004°16'0 0.0
2016-Jul-19 03:31N 51°18' E 004°16'0 0.0
2016-Jul-19 02:31N 51°18' E 004°16'0 0.0
2016-Jul-19 01:31N 51°18' E 004°16'0 0.0
2016-Jul-19 00:31N 51°18' E 004°16'0 0.3
2016-Jul-18 23:33N 51°18' E 004°16'7 6.8
2016-Jul-18 22:33N 51°22' E 004°08'1211.7
2016-Jul-18 21:33N 51°21' E 003°49'1211.8
2016-Jul-18 20:32N 51°27' E 003°32'1615.7
2016-Jul-18 19:32N 51°40' E 003°18'7 7.1
2016-Jul-18 18:33N 51°47' E 003°15'3 2.9
2016-Jul-18 17:28N 51°48' E 003°20'0 0.1
2016-Jul-18 14:13N 51°48' E 003°20'0 0.0
2016-Jul-18 13:31N 51°48' E 003°20'0 0.0
2016-Jul-18 12:31N 51°48' E 003°20'0 0.0
2016-Jul-18 11:25N 51°48' E 003°20'0 0.2
2016-Jul-18 10:31N 51°48' E 003°20'0 0.0
2016-Jul-18 09:28N 51°48' E 003°20'0 0.0
2016-Jul-18 08:25N 51°48' E 003°20'0 0.0
2016-Jul-18 07:25N 51°48' E 003°20'0 0.0
2016-Jul-18 06:25N 51°48' E 003°20'0 0.1
2016-Jul-18 04:31N 51°48' E 003°20'0 0.0
2016-Jul-17 19:22N 51°48' E 003°20'0 0.0
2016-Jul-17 08:07N 51°48' E 003°20'0 0.0
2016-Jul-17 07:19N 51°48' E 003°20'  
Track history (hours):
 
Tides and Currents Weather Stations Pressure Air Temp Water Temp Dewpoint Dewpoint Depression Visibility Wind Speed Wind Dir Waves Ship Positions

CMA CGM Volga

Last reported at 2016-Jul-26 21:16 UTC. Time now 2016-Jul-27 03:48 UTC.
Position N 50°54' W 001°28'.

Length 184 m; draft 8.6 m.

Type: Ship (hazmat cat A). MMSI: 212456000.

Date/timePositionNaut miles runAvg speedWind from/ knotsBaromVisibWave heightAir tempDewpointWater temp
2016-Jul-26 21:16N 50°54' W 001°28'3 4.4
2016-Jul-26 20:32N 50°53' W 001°23'7 7.2
2016-Jul-26 19:33N 50°47' W 001°18'1313.2
2016-Jul-26 18:33N 50°41' W 000°59'4 3.6
2016-Jul-26 17:31N 50°38' W 001°01'0 0.2
2016-Jul-26 16:31N 50°38' W 001°01'0 0.2
2016-Jul-26 15:25N 50°38' W 001°00'0 0.0
2016-Jul-26 14:31N 50°38' W 001°00'0 0.0
2016-Jul-26 13:31N 50°38' W 001°00'0 0.0
2016-Jul-26 12:31N 50°38' W 001°00'0 0.0
2016-Jul-26 11:31N 50°38' W 001°00'0 0.0
2016-Jul-26 10:31N 50°38' W 001°00'0 0.0
2016-Jul-26 09:31N 50°38' W 001°00'0 0.2
2016-Jul-26 08:31N 50°38' W 001°01'0 0.0
2016-Jul-26 07:31N 50°38' W 001°01'0 0.0
2016-Jul-26 06:31N 50°38' W 001°01'0 0.0
2016-Jul-26 05:31N 50°38' W 001°01'0 0.0
2016-Jul-26 04:31N 50°38' W 001°01'0 0.1
2016-Jul-26 03:31N 50°38' W 001°01'0 0.2
2016-Jul-26 02:28N 50°38' W 001°00'0 0.0
2016-Jul-26 01:31N 50°38' W 001°00'0 0.0
2016-Jul-26 00:25N 50°38' W 001°00'0 0.0
2016-Jul-25 23:31N 50°38' W 001°00'0 0.0
2016-Jul-25 22:31N 50°38' W 001°00'0 0.0
2016-Jul-25 21:31N 50°38' W 001°00'0 0.0
2016-Jul-25 20:31N 50°38' W 001°00'0 0.2
2016-Jul-25 19:31N 50°38' W 001°01'0 0.0
2016-Jul-25 18:31N 50°38' W 001°01'0 0.0
2016-Jul-25 17:25N 50°38' W 001°01'0 0.0
2016-Jul-25 16:28N 50°38' W 001°01'0 0.1
2016-Jul-25 15:31N 50°38' W 001°01'2 1.7
2016-Jul-25 14:33N 50°38' W 000°58'9 9.2
2016-Jul-25 13:33N 50°36' W 000°44'1111.0
2016-Jul-25 12:33N 50°34' W 000°27'1010.5
2016-Jul-25 11:33N 50°33' W 000°10'1111.1
2016-Jul-25 10:32N 50°33' E 000°07'4113.2
2016-Jul-25 07:25N 50°52' E 001°05'1213.1
2016-Jul-25 06:28N 51°00' E 001°21'1111.7
2016-Jul-25 05:33N 51°07' E 001°33'1010.1
2016-Jul-25 04:33N 51°14' E 001°45'1010.5
2016-Jul-25 03:33N 51°22' E 001°56'10 9.9
2016-Jul-25 02:33N 51°22' E 002°12'1111.1
2016-Jul-25 01:31N 51°23' E 002°30'1212.1
2016-Jul-25 00:33N 51°22' E 002°49'1615.0
2016-Jul-24 23:27N 51°25' E 003°15'1314.2
2016-Jul-24 22:33N 51°26' E 003°35'1111.2
2016-Jul-24 21:33N 51°21' E 003°51'1211.9
2016-Jul-24 20:32N 51°23' E 004°10'7 7.1
2016-Jul-24 19:33N 51°17' E 004°15'0 0.0
2016-Jul-24 18:23N 51°17' E 004°15'0 0.0
2016-Jul-24 17:32N 51°17' E 004°15'0 0.0
2016-Jul-24 16:32N 51°17' E 004°15'0 0.0
2016-Jul-24 14:29N 51°17' E 004°15'0 0.0
2016-Jul-24 13:26N 51°17' E 004°15'0 0.0
2016-Jul-24 12:32N 51°17' E 004°15'0 0.0
2016-Jul-24 11:26N 51°17' E 004°15'0 0.0
2016-Jul-24 10:32N 51°17' E 004°15'0 0.0
2016-Jul-24 09:32N 51°17' E 004°15'0 0.0
2016-Jul-24 08:20N 51°17' E 004°15'0 0.0
2016-Jul-24 07:32N 51°17' E 004°15'0 0.0
2016-Jul-24 06:29N 51°17' E 004°15'0 0.0
2016-Jul-24 04:32N 51°17' E 004°15'0 0.0
2016-Jul-24 03:17N 51°17' E 004°15'0 0.0
2016-Jul-24 02:17N 51°17' E 004°15'0 0.0
2016-Jul-24 01:29N 51°17' E 004°15'0 0.0
2016-Jul-24 00:26N 51°17' E 004°15'0 0.0
2016-Jul-23 23:26N 51°17' E 004°15'0 0.0
2016-Jul-23 22:32N 51°17' E 004°15'0 0.0
2016-Jul-23 21:30N 51°17' E 004°15'2 2.5
2016-Jul-23 20:33N 51°19' E 004°16'7 6.8
2016-Jul-23 19:33N 51°22' E 004°06'7 7.1
2016-Jul-23 18:33N 51°22' E 003°55'1111.2
2016-Jul-23 17:33N 51°26' E 003°38'10 9.5
2016-Jul-23 16:33N 51°24' E 003°23'1717.1
2016-Jul-23 15:33N 51°22' E 002°56'1010.0
2016-Jul-23 14:32N 51°24' E 002°40'1 0.6
2016-Jul-23 13:19N 51°25' E 002°40'0 0.1
2016-Jul-23 12:04N 51°25' E 002°40'0 0.0
2016-Jul-23 09:22N 51°25' E 002°40'0 0.1
2016-Jul-23 06:34N 51°25' E 002°40'0 0.1
2016-Jul-23 04:34N 51°25' E 002°40'0 0.0
2016-Jul-23 01:28N 51°25' E 002°40'0 0.1
2016-Jul-23 00:25N 51°25' E 002°40'0 0.0
2016-Jul-22 22:30N 51°25' E 002°40'8 8.1
2016-Jul-22 21:31N 51°21' E 002°28'1212.3
2016-Jul-22 20:33N 51°15' E 002°12'1312.7
2016-Jul-22 19:33N 51°09' E 001°55'1312.9
2016-Jul-22 18:33N 51°01' E 001°39'1513.5
2016-Jul-22 17:28N 50°48' E 001°27'1313.9
2016-Jul-22 16:33N 50°38' E 001°16'2913.9
2016-Jul-22 14:27N 50°24' E 000°35'1314.4
2016-Jul-22 13:33N 50°21' E 000°15'1514.8
2016-Jul-22 12:33N 50°20' W 000°08'1715.0
2016-Jul-22 11:26N 50°27' W 000°31'1416.0
2016-Jul-22 10:33N 50°36' W 000°48'1414.5
2016-Jul-22 09:33N 50°45' W 001°06'1212.4
2016-Jul-22 08:33N 50°52' W 001°22'3 0.6
2016-Jul-22 02:19N 50°54' W 001°27'0 0.0
2016-Jul-21 16:22N 50°54' W 001°27'0 0.0
2016-Jul-21 15:31N 50°54' W 001°27'5 5.7
2016-Jul-21 14:33N 50°51' W 001°20'10 9.8
2016-Jul-21 13:33N 50°45' W 001°07'8 7.5
2016-Jul-21 12:33N 50°39' W 001°02'1 0.8
2016-Jul-21 11:33N 50°38' W 001°03'0 0.0
2016-Jul-21 10:27N 50°38' W 001°03'0 0.0
2016-Jul-21 09:27N 50°38' W 001°03'0 0.0
2016-Jul-21 08:33N 50°38' W 001°03'0 0.0
2016-Jul-21 07:33N 50°38' W 001°03'0 0.0
2016-Jul-21 06:33N 50°38' W 001°03'0 0.1
2016-Jul-21 05:33N 50°38' W 001°03'0 0.2
2016-Jul-21 04:30N 50°38' W 001°04'0 0.0
2016-Jul-21 03:33N 50°38' W 001°04'0 0.0
2016-Jul-21 02:33N 50°38' W 001°04'0 0.0
2016-Jul-21 01:33N 50°38' W 001°04'0 0.0
2016-Jul-21 00:33N 50°38' W 001°04'0 0.2
2016-Jul-20 23:27N 50°38' W 001°03'0 0.1
2016-Jul-20 22:33N 50°38' W 001°03'0 0.0
2016-Jul-20 21:33N 50°38' W 001°03'0 0.0
2016-Jul-20 20:33N 50°38' W 001°03'0 0.0
2016-Jul-20 19:21N 50°38' W 001°03'0 0.0
2016-Jul-20 18:27N 50°38' W 001°03'0 0.0
2016-Jul-20 17:33N 50°38' W 001°03'0 0.1
2016-Jul-20 16:33N 50°38' W 001°03'0 0.2
2016-Jul-20 15:33N 50°38' W 001°03'0 0.0
2016-Jul-20 14:33N 50°38' W 001°03'0 0.0
2016-Jul-20 13:33N 50°38' W 001°03'0 0.0
2016-Jul-20 12:21N 50°38' W 001°03'0 0.3
2016-Jul-20 11:33N 50°38' W 001°03'1 0.6
2016-Jul-20 10:33N 50°39' W 001°02'10 9.8
2016-Jul-20 09:34N 50°36' W 000°48'10 9.9
2016-Jul-20 08:33N 50°34' W 000°32'1010.5
2016-Jul-20 07:33N 50°33' W 000°16'1211.8
2016-Jul-20 06:30N 50°33' E 000°03'1313.1
2016-Jul-20 05:30N 50°37' E 000°23'2813.9
2016-Jul-20 03:32N 50°50' E 001°01'1313.1
2016-Jul-20 02:32N 50°59' E 001°17'1211.8
2016-Jul-20 01:33N 51°06' E 001°31'1010.5
2016-Jul-20 00:33N 51°13' E 001°43'1111.0
2016-Jul-19 23:33N 51°22' E 001°54'1110.9
2016-Jul-19 22:33N 51°22' E 002°12'1313.0
2016-Jul-19 21:33N 51°23' E 002°33'1414.5
2016-Jul-19 20:33N 51°23' E 002°56'1916.3
2016-Jul-19 19:24N 51°25' E 003°26'1214.6
2016-Jul-19 18:33N 51°22' E 003°45'1211.9
2016-Jul-19 17:33N 51°22' E 004°04'9 8.5
2016-Jul-19 16:33N 51°18' E 004°16'0 0.0
2016-Jul-19 14:25N 51°18' E 004°16'0 0.0
2016-Jul-19 13:07N 51°18' E 004°16'0 0.0
2016-Jul-19 12:31N 51°18' E 004°16'0 0.0
2016-Jul-19 11:10N 51°18' E 004°16'0 0.0
2016-Jul-19 10:22N 51°18' E 004°16'0 0.0
2016-Jul-19 09:22N 51°18' E 004°16'0 0.0
2016-Jul-19 08:31N 51°18' E 004°16'0 0.0
2016-Jul-19 07:31N 51°18' E 004°16'0 0.0
2016-Jul-19 04:19N 51°18' E 004°16'0 0.0
2016-Jul-19 03:31N 51°18' E 004°16'0 0.0
2016-Jul-19 02:31N 51°18' E 004°16'0 0.0
2016-Jul-19 01:31N 51°18' E 004°16'0 0.0
2016-Jul-19 00:31N 51°18' E 004°16'0 0.3
2016-Jul-18 23:33N 51°18' E 004°16'7 6.8
2016-Jul-18 22:33N 51°22' E 004°08'1211.7
2016-Jul-18 21:33N 51°21' E 003°49'1211.8
2016-Jul-18 20:32N 51°27' E 003°32'1615.7
2016-Jul-18 19:32N 51°40' E 003°18'7 7.1
2016-Jul-18 18:33N 51°47' E 003°15'3 2.9
2016-Jul-18 17:28N 51°48' E 003°20'0 0.1
2016-Jul-18 14:13N 51°48' E 003°20'0 0.0
2016-Jul-18 13:31N 51°48' E 003°20'0 0.0
2016-Jul-18 12:31N 51°48' E 003°20'0 0.0
2016-Jul-18 11:25N 51°48' E 003°20'0 0.2
2016-Jul-18 10:31N 51°48' E 003°20'0 0.0
2016-Jul-18 09:28N 51°48' E 003°20'0 0.0
2016-Jul-18 08:25N 51°48' E 003°20'0 0.0
2016-Jul-18 07:25N 51°48' E 003°20'0 0.0
2016-Jul-18 06:25N 51°48' E 003°20'0 0.1
2016-Jul-18 04:31N 51°48' E 003°20'0 0.0
2016-Jul-17 19:22N 51°48' E 003°20'0 0.0
2016-Jul-17 08:07N 51°48' E 003°20'0 0.0
2016-Jul-17 07:19N 51°48' E 003°20'  

Dump ship's entire track history